createdAt,value
2023-02-24T00:00:31.012Z,27.50
2023-02-24T00:03:12.731Z,28.30
2023-02-24T00:05:42.845Z,26.80
2023-02-24T00:08:10.694Z,29.00
2023-02-24T00:10:38.484Z,26.90
2023-02-24T00:13:06.341Z,28.90
2023-02-24T00:15:34.179Z,29.30
2023-02-24T00:18:07.150Z,28.70
2023-02-24T00:20:35.610Z,27.90
2023-02-24T00:23:03.809Z,30.40
2023-02-24T00:25:31.652Z,27.90
2023-02-24T00:28:01.652Z,28.70
2023-02-24T00:30:31.549Z,28.30
2023-02-24T00:33:01.397Z,28.20
2023-02-24T00:35:32.248Z,28.50
2023-02-24T00:38:00.817Z,29.00
2023-02-24T00:40:30.767Z,27.40
2023-02-24T00:43:00.481Z,28.10
2023-02-24T00:45:30.960Z,28.50
2023-02-24T00:47:58.928Z,26.80
2023-02-24T00:50:26.852Z,27.90
2023-02-24T00:52:54.631Z,29.20
2023-02-24T00:55:23.261Z,30.90
2023-02-24T00:57:51.086Z,30.80
2023-02-24T01:00:23.426Z,28.80
2023-02-24T01:02:51.321Z,28.60
2023-02-24T01:05:20.210Z,28.10
2023-02-24T01:07:48.076Z,28.20
2023-02-24T01:10:18.445Z,26.70
2023-02-24T01:12:54.077Z,27.20
2023-02-24T01:15:22.877Z,27.20
2023-02-24T01:17:50.824Z,27.70
2023-02-24T01:20:19.126Z,28.00
2023-02-24T01:22:50.580Z,26.40
2023-02-24T01:25:20.524Z,28.00
2023-02-24T01:27:49.028Z,27.20
2023-02-24T01:30:18.344Z,28.40
2023-02-24T01:32:47.301Z,27.30
2023-02-24T01:35:15.963Z,26.40
2023-02-24T01:37:45.194Z,26.70
2023-02-24T01:40:18.786Z,28.10
2023-02-24T01:45:22.850Z,25.50
2023-02-24T01:47:52.208Z,27.80
2023-02-24T01:50:25.999Z,27.50
2023-02-24T01:52:58.831Z,27.20
2023-02-24T01:55:32.783Z,28.20
2023-02-24T01:58:07.881Z,27.10
2023-02-24T02:00:39.054Z,28.10
2023-02-24T02:03:12.176Z,26.80
2023-02-24T02:05:42.414Z,27.00
2023-02-24T02:08:11.180Z,28.00
2023-02-24T02:10:41.333Z,27.40
2023-02-24T02:13:09.197Z,27.90
2023-02-24T02:15:47.739Z,26.70
2023-02-24T02:18:36.425Z,27.00
2023-02-24T02:21:32.622Z,26.30
2023-02-24T02:24:09.241Z,26.70
2023-02-24T02:27:02.376Z,26.10
2023-02-24T02:29:53.286Z,26.40
2023-02-24T02:32:31.744Z,25.90
2023-02-24T02:35:18.865Z,26.80
2023-02-24T02:37:57.116Z,25.80
2023-02-24T02:40:39.026Z,26.20
2023-02-24T02:43:25.953Z,25.10
2023-02-24T02:46:14.904Z,26.20
2023-02-24T02:48:57.348Z,24.60
2023-02-24T02:51:32.168Z,26.10
2023-02-24T02:54:33.963Z,24.70
2023-02-24T02:57:12.938Z,24.20
2023-02-24T02:59:49.317Z,24.60
2023-02-24T03:02:28.626Z,25.90
2023-02-24T03:05:02.163Z,24.50
2023-02-24T03:07:37.584Z,25.20
2023-02-24T03:10:17.645Z,26.80
2023-02-24T03:12:50.657Z,27.80
2023-02-24T03:15:24.153Z,29.90
2023-02-24T03:18:12.032Z,29.10
2023-02-24T03:20:47.866Z,28.20
2023-02-24T03:23:25.768Z,27.40
2023-02-24T03:25:58.857Z,26.80
2023-02-24T03:28:37.347Z,26.40
2023-02-24T03:31:18.208Z,26.80
2023-02-24T03:34:00.640Z,26.70
2023-02-24T03:36:29.501Z,25.90
2023-02-24T03:38:58.643Z,28.20
2023-02-24T03:41:31.651Z,28.00
2023-02-24T03:44:01.520Z,28.30
2023-02-24T03:46:31.922Z,27.70
2023-02-24T03:49:17.052Z,27.60
2023-02-24T03:51:59.669Z,27.30
2023-02-24T03:54:48.420Z,27.60
2023-02-24T03:57:27.182Z,27.30
2023-02-24T04:00:26.050Z,28.00
2023-02-24T04:03:09.675Z,28.50
2023-02-24T04:05:47.650Z,28.60
2023-02-24T04:08:17.196Z,29.80
2023-02-24T04:10:57.444Z,30.10
2023-02-24T04:14:09.938Z,28.90
2023-02-24T04:16:54.112Z,29.20
2023-02-24T04:19:27.676Z,29.70
2023-02-24T04:21:57.289Z,29.40
2023-02-24T04:24:30.465Z,29.00
2023-02-24T04:27:01.938Z,30.10
2023-02-24T04:29:35.850Z,28.30
2023-02-24T04:32:08.961Z,29.00
2023-02-24T04:34:40.354Z,28.00
2023-02-24T04:37:09.213Z,27.30
2023-02-24T04:39:38.496Z,28.50
2023-02-24T04:42:10.876Z,28.50
2023-02-24T04:44:38.683Z,28.70
2023-02-24T04:47:07.274Z,27.10
2023-02-24T04:49:35.191Z,28.40
2023-02-24T04:52:03.068Z,29.60
2023-02-24T04:54:31.524Z,28.50
2023-02-24T04:56:59.498Z,28.40
2023-02-24T04:59:27.947Z,28.60
2023-02-24T05:02:00.402Z,27.90
2023-02-24T05:04:30.111Z,25.40
2023-02-24T05:06:57.990Z,27.90
2023-02-24T05:09:30.025Z,26.90
2023-02-24T05:11:58.403Z,27.10
2023-02-24T05:14:26.354Z,26.50
2023-02-24T05:17:00.036Z,25.50
2023-02-24T05:19:47.460Z,25.20
2023-02-24T05:22:17.637Z,23.80
2023-02-24T05:24:48.009Z,25.40
2023-02-24T05:27:17.294Z,24.70
2023-02-24T05:29:45.200Z,20.50
2023-02-24T05:32:13.191Z,20.80
2023-02-24T05:34:42.709Z,18.30
2023-02-24T05:37:10.857Z,16.70
2023-02-24T05:39:38.786Z,16.70
2023-02-24T05:42:07.149Z,15.90
2023-02-24T05:44:35.949Z,13.90
2023-02-24T05:47:05.541Z,12.60
2023-02-24T05:49:35.260Z,12.20
2023-02-24T05:52:08.769Z,12.50
2023-02-24T05:54:39.900Z,12.90
2023-02-24T05:57:21.330Z,12.80
2023-02-24T05:59:50.569Z,13.90
2023-02-24T06:02:27.483Z,13.60
2023-02-24T06:04:56.065Z,15.20
2023-02-24T06:07:28.733Z,15.20
2023-02-24T06:09:58.793Z,14.00
2023-02-24T06:12:31.871Z,13.60
2023-02-24T06:15:00.406Z,13.60
2023-02-24T06:17:28.574Z,13.40
2023-02-24T06:19:56.742Z,11.60
2023-02-24T06:22:26.411Z,11.50
2023-02-24T06:24:55.212Z,9.40
2023-02-24T06:27:24.953Z,8.70
2023-02-24T06:29:54.975Z,8.70
2023-02-24T06:32:25.592Z,8.70
2023-02-24T06:34:54.438Z,9.00
2023-02-24T06:37:25.479Z,9.90
2023-02-24T06:39:53.413Z,9.70
2023-02-24T06:42:21.901Z,10.90
2023-02-24T06:44:50.405Z,10.00
2023-02-24T06:47:18.566Z,9.90
2023-02-24T06:49:47.974Z,10.80
2023-02-24T06:52:19.087Z,10.40
2023-02-24T06:54:49.084Z,11.20
2023-02-24T06:57:17.380Z,11.80
2023-02-24T06:59:46.116Z,11.70
2023-02-24T07:02:14.193Z,12.30
2023-02-24T07:04:44.789Z,11.90
2023-02-24T07:07:14.417Z,12.80
2023-02-24T07:09:42.715Z,13.50
2023-02-24T07:12:12.539Z,14.90
2023-02-24T07:14:40.820Z,13.50
2023-02-24T07:17:08.874Z,14.50
2023-02-24T07:19:36.947Z,14.50
2023-02-24T07:22:04.857Z,14.40
2023-02-24T07:24:40.653Z,15.30
2023-02-24T07:27:12.630Z,13.60
2023-02-24T07:29:40.511Z,14.90
2023-02-24T07:32:09.454Z,15.20
2023-02-24T07:34:41.007Z,16.80
2023-02-24T07:37:10.154Z,15.60
2023-02-24T07:39:39.494Z,16.20
2023-02-24T07:42:09.684Z,17.10
2023-02-24T07:44:46.652Z,15.80
2023-02-24T07:47:15.902Z,16.50
2023-02-24T07:49:45.252Z,17.10
2023-02-24T07:52:13.408Z,15.50
2023-02-24T07:54:41.249Z,13.60
2023-02-24T07:57:13.982Z,14.60
2023-02-24T07:59:46.772Z,15.30
2023-02-24T08:02:15.859Z,14.60
2023-02-24T08:04:50.111Z,13.10
2023-02-24T08:07:24.767Z,11.30
2023-02-24T08:10:12.121Z,10.80
2023-02-24T08:12:44.544Z,9.00
2023-02-24T08:15:23.747Z,7.40
2023-02-24T08:17:59.629Z,6.00
2023-02-24T08:20:36.005Z,6.10
2023-02-24T08:23:06.496Z,5.80
2023-02-24T08:25:37.197Z,6.20
2023-02-24T08:28:11.447Z,6.60
2023-02-24T08:30:47.108Z,6.00
2023-02-24T08:33:22.040Z,6.00
2023-02-24T08:36:01.003Z,6.50
2023-02-24T08:38:42.058Z,7.30
2023-02-24T08:41:18.251Z,7.70
2023-02-24T08:43:48.398Z,6.50
2023-02-24T08:46:26.589Z,6.00
2023-02-24T08:49:00.569Z,7.00
2023-02-24T08:56:43.546Z,6.80
2023-02-24T08:59:29.366Z,6.00
2023-02-24T09:02:18.403Z,6.30
2023-02-24T09:04:59.004Z,6.00
2023-02-24T09:07:35.529Z,6.90
2023-02-24T09:10:17.761Z,6.50
2023-02-24T09:12:47.010Z,6.60
2023-02-24T09:15:15.743Z,6.30
2023-02-24T09:17:45.392Z,6.70
2023-02-24T09:20:27.128Z,7.10
2023-02-24T09:23:07.772Z,10.30
2023-02-24T09:25:41.742Z,8.10
2023-02-24T09:28:24.624Z,6.90
2023-02-24T09:30:58.487Z,6.40
2023-02-24T09:36:10.326Z,7.30
2023-02-24T09:39:09.809Z,7.50
2023-02-24T09:42:07.984Z,5.90
2023-02-24T09:44:42.075Z,7.40
2023-02-24T09:47:31.008Z,6.60
2023-02-24T09:50:05.978Z,6.40
2023-02-24T09:52:43.166Z,6.30
2023-02-24T09:55:27.665Z,8.10
2023-02-24T09:58:26.971Z,10.90
2023-02-24T10:01:21.278Z,5.90
2023-02-24T10:04:18.548Z,5.70
2023-02-24T10:06:49.150Z,7.20
2023-02-24T10:09:24.703Z,7.70
2023-02-24T10:12:04.061Z,5.40
2023-02-24T10:14:53.019Z,5.10
2023-02-24T10:17:24.259Z,8.90
2023-02-24T10:20:00.091Z,7.20
2023-02-24T10:22:50.789Z,7.50
2023-02-24T10:25:37.498Z,4.30
2023-02-24T10:28:43.950Z,3.40
2023-02-24T10:31:25.993Z,3.30
2023-02-24T10:34:06.118Z,4.40
2023-02-24T10:36:39.312Z,5.10
2023-02-24T10:39:17.064Z,6.10
2023-02-24T10:41:50.168Z,5.00
2023-02-24T10:44:25.583Z,5.80
2023-02-24T10:47:12.482Z,3.70
2023-02-24T10:49:57.146Z,3.60
2023-02-24T10:53:06.725Z,2.90
2023-02-24T10:55:45.353Z,4.20
2023-02-24T10:58:28.522Z,4.40
2023-02-24T11:01:11.959Z,4.90
2023-02-24T11:03:48.172Z,4.20
2023-02-24T11:06:41.310Z,4.70
2023-02-24T11:09:30.089Z,4.30
2023-02-24T11:12:38.454Z,4.70
2023-02-24T11:15:37.478Z,3.70
2023-02-24T11:18:07.011Z,3.50
2023-02-24T11:20:49.497Z,2.90
2023-02-24T11:23:23.643Z,4.30
2023-02-24T11:26:04.716Z,3.10
2023-02-24T11:28:48.907Z,2.20
2023-02-24T11:31:28.770Z,3.20
2023-02-24T11:34:07.607Z,3.70
2023-02-24T11:36:58.096Z,3.80
2023-02-24T11:39:53.081Z,2.90
2023-02-24T11:42:46.118Z,2.50
2023-02-24T11:45:29.979Z,3.60
2023-02-24T11:50:39.837Z,3.60
2023-02-24T11:53:35.493Z,3.70
2023-02-24T11:56:11.155Z,4.00
2023-02-24T11:59:21.310Z,2.90
2023-02-24T12:02:10.605Z,2.40
2023-02-24T12:04:52.549Z,2.30
2023-02-24T12:07:39.023Z,3.20
2023-02-24T12:10:17.774Z,2.90
2023-02-24T12:13:16.202Z,4.40
2023-02-24T12:15:50.630Z,3.60
2023-02-24T12:18:39.679Z,2.60
2023-02-24T12:21:21.598Z,4.20
2023-02-24T12:23:53.619Z,2.30
2023-02-24T12:26:24.302Z,2.80
2023-02-24T12:29:27.881Z,2.80
2023-02-24T12:32:01.755Z,3.60
2023-02-24T12:34:43.501Z,2.10
2023-02-24T12:37:40.203Z,3.70
2023-02-24T12:40:14.230Z,3.00
2023-02-24T12:43:03.642Z,2.50
2023-02-24T12:45:47.797Z,2.80
2023-02-24T12:48:40.711Z,2.50
2023-02-24T12:51:28.554Z,2.40
2023-02-24T12:54:15.529Z,4.10
2023-02-24T12:57:02.720Z,4.60
2023-02-24T12:59:38.086Z,5.40
2023-02-24T13:02:14.997Z,5.40
2023-02-24T13:05:10.139Z,4.80
2023-02-24T13:07:48.335Z,3.10
2023-02-24T13:10:28.648Z,3.20
2023-02-24T13:13:16.460Z,3.00
2023-02-24T13:15:56.309Z,3.60
2023-02-24T13:18:36.579Z,4.20
2023-02-24T13:21:23.423Z,4.00
2023-02-24T13:24:01.083Z,5.20
2023-02-24T13:26:32.143Z,3.40
2023-02-24T13:29:11.479Z,2.80
2023-02-24T13:31:50.881Z,3.00
2023-02-24T13:34:21.905Z,3.30
2023-02-24T13:36:50.327Z,3.90
2023-02-24T13:39:24.277Z,4.20
2023-02-24T13:42:04.274Z,3.80
2023-02-24T13:44:32.774Z,3.60
2023-02-24T13:47:15.803Z,3.60
2023-02-24T13:49:54.389Z,3.50
2023-02-24T13:53:00.751Z,2.90
2023-02-24T13:55:39.698Z,5.00
2023-02-24T13:58:19.203Z,4.00
2023-02-24T14:00:59.898Z,4.40
2023-02-24T14:03:29.213Z,6.00
2023-02-24T14:05:59.301Z,6.40
2023-02-24T14:08:36.572Z,5.60
2023-02-24T14:11:06.746Z,15.40
2023-02-24T14:13:36.684Z,7.20
2023-02-24T14:16:11.830Z,6.50
2023-02-24T14:18:41.022Z,11.70
2023-02-24T14:21:21.462Z,7.10
2023-02-24T14:24:00.562Z,10.60
2023-02-24T14:26:33.619Z,9.70
2023-02-24T14:29:02.134Z,7.30
2023-02-24T14:31:30.443Z,7.20
2023-02-24T14:34:03.452Z,11.50
2023-02-24T14:36:35.790Z,11.30
2023-02-24T14:39:16.868Z,14.50
2023-02-24T14:41:46.092Z,9.50
2023-02-24T14:44:27.201Z,9.50
2023-02-24T14:46:57.444Z,26.00
2023-02-24T14:49:30.845Z,16.50
2023-02-24T14:52:05.543Z,9.20
2023-02-24T14:54:36.398Z,7.70
2023-02-24T14:57:04.955Z,11.70
2023-02-24T14:59:40.091Z,17.90
2023-02-24T15:02:15.310Z,6.60
2023-02-24T15:04:44.602Z,5.90
2023-02-24T15:07:30.907Z,9.00
2023-02-24T15:10:00.128Z,5.10
2023-02-24T15:12:46.840Z,4.40
2023-02-24T15:15:21.994Z,4.90
2023-02-24T15:17:55.574Z,4.50
2023-02-24T15:22:59.526Z,5.20
2023-02-24T15:25:43.448Z,4.80
2023-02-24T15:31:19.839Z,4.20
2023-02-24T15:34:00.327Z,4.60
2023-02-24T15:36:32.751Z,5.10
2023-02-24T15:39:11.826Z,7.50
2023-02-24T15:41:40.799Z,5.60
2023-02-24T15:44:25.184Z,5.30
2023-02-24T15:46:53.518Z,6.90
2023-02-24T15:49:21.475Z,7.30
2023-02-24T15:51:52.393Z,6.60
2023-02-24T15:54:25.116Z,6.40
2023-02-24T15:56:53.030Z,7.90
2023-02-24T15:59:23.432Z,9.20
2023-02-24T16:01:54.161Z,9.00
2023-02-24T16:04:23.221Z,7.90
2023-02-24T16:06:54.689Z,8.40
2023-02-24T16:09:39.912Z,10.30
2023-02-24T16:12:14.970Z,9.70
2023-02-24T16:14:43.905Z,8.20
2023-02-24T16:17:28.128Z,10.40
2023-02-24T16:19:56.928Z,7.90
2023-02-24T16:22:24.909Z,8.00
2023-02-24T16:24:53.166Z,8.50
2023-02-24T16:27:23.356Z,12.40
2023-02-24T16:29:51.244Z,15.60
2023-02-24T16:32:22.158Z,13.40
2023-02-24T16:34:50.154Z,13.30
2023-02-24T16:37:26.352Z,14.60
2023-02-24T16:39:54.836Z,11.10
2023-02-24T16:42:23.012Z,15.20
2023-02-24T16:44:51.149Z,16.50
2023-02-24T16:47:22.898Z,14.30
2023-02-24T16:49:55.336Z,17.40
2023-02-24T16:52:24.802Z,12.00
2023-02-24T16:54:52.700Z,13.60
2023-02-24T16:57:25.639Z,14.60
2023-02-24T16:59:53.717Z,13.20
2023-02-24T17:02:26.070Z,12.70
2023-02-24T17:04:54.204Z,12.70
2023-02-24T17:07:22.082Z,14.40
2023-02-24T17:09:50.494Z,19.30
2023-02-24T17:12:21.912Z,15.50
2023-02-24T17:14:49.982Z,14.50
2023-02-24T17:17:17.917Z,17.30
2023-02-24T17:19:45.742Z,15.30
2023-02-24T17:22:13.572Z,15.50
2023-02-24T17:24:41.412Z,17.20
2023-02-24T17:27:11.062Z,17.00
2023-02-24T17:29:38.920Z,18.20
2023-02-24T17:32:06.917Z,20.90
2023-02-24T17:34:34.844Z,27.10
2023-02-24T17:37:03.688Z,26.60
2023-02-24T17:39:32.671Z,25.30
2023-02-24T17:42:00.888Z,25.20
2023-02-24T17:44:28.840Z,19.90
2023-02-24T17:46:56.741Z,16.00
2023-02-24T17:49:24.860Z,16.40
2023-02-24T17:51:52.859Z,16.40
2023-02-24T17:54:20.727Z,14.50
2023-02-24T17:56:48.642Z,17.30
2023-02-24T17:59:16.604Z,17.90
2023-02-24T18:01:44.431Z,20.30
2023-02-24T18:04:14.742Z,15.70
2023-02-24T18:06:43.368Z,17.50
2023-02-24T18:09:11.856Z,15.70
2023-02-24T18:11:39.791Z,23.00
2023-02-24T18:14:07.717Z,24.70
2023-02-24T18:16:35.686Z,27.20
2023-02-24T18:19:04.266Z,26.10
2023-02-24T18:21:32.319Z,25.00
2023-02-24T18:24:00.156Z,21.50
2023-02-24T18:26:28.617Z,18.80
2023-02-24T18:28:58.297Z,19.70
2023-02-24T18:31:28.066Z,38.30
2023-02-24T18:33:57.152Z,41.70
2023-02-24T18:36:26.029Z,37.70
2023-02-24T18:38:54.041Z,33.30
2023-02-24T18:41:23.611Z,25.10
2023-02-24T18:43:54.240Z,27.00
2023-02-24T18:46:23.604Z,14.40
2023-02-24T18:48:51.937Z,14.00
2023-02-24T18:51:22.289Z,18.30
2023-02-24T18:53:52.783Z,12.80
2023-02-24T18:56:24.550Z,10.10
2023-02-24T18:58:56.214Z,8.90
2023-02-24T19:01:27.153Z,9.30
2023-02-24T19:03:56.322Z,9.80
2023-02-24T19:06:26.979Z,10.90
2023-02-24T19:08:58.873Z,13.70
2023-02-24T19:11:27.155Z,13.40
2023-02-24T19:13:55.751Z,16.40
2023-02-24T19:16:23.951Z,11.40
2023-02-24T19:18:53.768Z,12.30
2023-02-24T19:21:21.755Z,11.60
2023-02-24T19:23:50.467Z,12.70
2023-02-24T19:26:21.287Z,12.20
2023-02-24T19:28:49.760Z,10.20
2023-02-24T19:31:20.819Z,10.30
2023-02-24T19:34:08.625Z,14.30
2023-02-24T19:36:37.736Z,18.20
2023-02-24T19:39:09.645Z,19.70
2023-02-24T19:41:38.316Z,15.70
2023-02-24T19:44:06.142Z,15.90
2023-02-24T19:46:34.374Z,13.70
2023-02-24T19:49:03.115Z,14.00
2023-02-24T19:51:31.343Z,14.00
2023-02-24T19:54:03.174Z,15.80
2023-02-24T19:56:33.932Z,16.30
2023-02-24T19:59:03.780Z,16.50
2023-02-24T20:01:32.262Z,17.40
2023-02-24T20:04:02.290Z,19.30
2023-02-24T20:06:33.210Z,19.00
2023-02-24T20:09:02.430Z,17.30
2023-02-24T20:11:31.021Z,17.20
2023-02-24T20:13:58.936Z,16.90
2023-02-24T20:16:31.983Z,14.00
2023-02-24T20:19:00.678Z,14.90
2023-02-24T20:21:29.207Z,15.40
2023-02-24T20:24:01.409Z,15.40
2023-02-24T20:26:30.061Z,15.30
2023-02-24T20:28:59.993Z,16.20
2023-02-24T20:31:28.641Z,15.80
2023-02-24T20:33:56.651Z,14.10
2023-02-24T20:36:26.948Z,18.20
2023-02-24T20:38:57.775Z,18.10
2023-02-24T20:41:27.721Z,21.10
2023-02-24T20:43:55.932Z,19.00
2023-02-24T20:46:29.653Z,22.10
2023-02-24T20:51:29.481Z,13.80
2023-02-24T20:53:58.785Z,12.10
2023-02-24T20:56:29.667Z,11.80
2023-02-24T20:59:13.796Z,11.00
2023-02-24T21:01:42.316Z,11.50
2023-02-24T21:04:12.650Z,11.30
2023-02-24T21:06:41.023Z,10.70
2023-02-24T21:09:11.884Z,11.80
2023-02-24T21:11:39.992Z,8.70
2023-02-24T21:14:08.070Z,6.50
2023-02-24T21:16:35.933Z,6.00
2023-02-24T21:19:03.781Z,6.40
2023-02-24T21:21:31.614Z,6.70
2023-02-24T21:23:59.413Z,6.90
2023-02-24T21:26:29.184Z,6.70
2023-02-24T21:28:58.610Z,7.50
2023-02-24T21:31:27.195Z,6.30
2023-02-24T21:33:55.948Z,6.90
2023-02-24T21:36:26.054Z,6.50
2023-02-24T21:38:55.369Z,7.00
2023-02-24T21:41:23.924Z,6.80
2023-02-24T21:43:57.088Z,5.50
2023-02-24T21:46:28.136Z,6.00
2023-02-24T21:48:59.548Z,5.30
2023-02-24T21:51:28.375Z,5.20
2023-02-24T21:53:57.305Z,4.90
2023-02-24T21:56:27.924Z,5.00
2023-02-24T21:59:01.159Z,4.40
2023-02-24T22:01:34.913Z,4.40
2023-02-24T22:04:05.644Z,4.80
2023-02-24T22:06:35.863Z,4.30
2023-02-24T22:09:06.199Z,4.00
2023-02-24T22:11:36.606Z,4.10
2023-02-24T22:14:08.334Z,3.50
2023-02-24T22:16:36.804Z,3.90
2023-02-24T22:19:04.935Z,4.60
2023-02-24T22:21:33.294Z,4.00
2023-02-24T22:24:02.999Z,3.50
2023-02-24T22:26:32.179Z,4.10
2023-02-24T22:29:01.051Z,4.00
2023-02-24T22:31:32.368Z,4.00
2023-02-24T22:34:01.076Z,3.40
2023-02-24T22:36:33.455Z,3.80
2023-02-24T22:39:02.234Z,3.30
2023-02-24T22:41:32.981Z,3.40
2023-02-24T22:44:02.905Z,3.40
2023-02-24T22:46:33.960Z,3.60
2023-02-24T22:49:02.868Z,3.50
2023-02-24T22:51:31.138Z,3.80
2023-02-24T22:53:58.966Z,3.20
2023-02-24T22:56:29.041Z,3.10
2023-02-24T22:58:58.214Z,2.90
2023-02-24T23:01:31.884Z,3.20
2023-02-24T23:06:30.640Z,2.70
2023-02-24T23:09:00.495Z,2.70
2023-02-24T23:11:31.041Z,2.10
2023-02-24T23:14:02.144Z,3.10
2023-02-24T23:16:31.967Z,2.60
2023-02-24T23:19:05.996Z,2.90
2023-02-24T23:21:39.868Z,2.30
2023-02-24T23:24:10.955Z,2.10
2023-02-24T23:26:41.847Z,2.40
2023-02-24T23:29:11.881Z,2.40
2023-02-24T23:31:41.094Z,2.00
2023-02-24T23:34:10.053Z,2.10
2023-02-24T23:36:40.763Z,2.00
2023-02-24T23:39:09.310Z,2.10
2023-02-24T23:41:38.487Z,2.00
2023-02-24T23:44:06.381Z,2.10
2023-02-24T23:46:35.864Z,2.00
2023-02-24T23:49:05.184Z,2.10
2023-02-24T23:51:46.916Z,1.80
2023-02-24T23:54:16.964Z,1.90
2023-02-24T23:56:44.852Z,2.20
2023-02-24T23:59:12.698Z,2.50
